Time;durP1;ratioP1;P1;durP2;ratioP2;P2;SDS_P1;SDS_P2;PMS_P1;PMS_P2;Temp;Humidity;BMP_temperature;BMP_pressure;BME280_temperature;BME280_humidity;BME280_pressure;Samples;Min_cycle;Max_cycle;Signal;HPM_P1;HPM_P2
2022/10/18 00:00:30;;;;;;;0.50;0.50;;;12.70;98.50;;;;;;5030010;28;20037;-70
2022/10/18 00:02:56;;;;;;;2.27;1.33;;;12.70;98.60;;;;;;5029021;28;20111;-70
2022/10/18 00:05:22;;;;;;;0.73;0.73;;;12.70;98.60;;;;;;5030818;28;20471;-70
2022/10/18 00:07:47;;;;;;;3.80;1.23;;;12.70;98.70;;;;;;5030652;28;20029;-69
2022/10/18 00:10:13;;;;;;;3.73;2.90;;;12.70;98.90;;;;;;5029678;28;20167;-69
2022/10/18 00:12:39;;;;;;;0.63;0.63;;;12.70;98.80;;;;;;5029591;28;20045;-69
2022/10/18 00:15:06;;;;;;;2.07;1.97;;;12.70;98.70;;;;;;5028273;28;20038;-69
2022/10/18 00:17:37;;;;;;;2.47;1.48;;;12.70;98.80;;;;;;5027193;28;20124;-69
2022/10/18 00:20:04;;;;;;;1.35;1.27;;;12.70;98.90;;;;;;5029283;28;20113;-69
2022/10/18 00:22:30;;;;;;;2.42;1.67;;;12.70;98.80;;;;;;5030436;28;20030;-69
2022/10/18 00:24:55;;;;;;;0.80;0.80;;;12.60;98.80;;;;;;5029680;28;20116;-69
2022/10/18 00:27:21;;;;;;;0.70;0.70;;;12.60;99.00;;;;;;5027530;28;20036;-69
2022/10/18 00:29:47;;;;;;;0.50;0.50;;;12.60;99.10;;;;;;5029437;28;20439;-68
2022/10/18 00:32:12;;;;;;;0.70;0.70;;;12.50;99.30;;;;;;5027468;28;20120;-68
2022/10/18 00:34:39;;;;;;;1.73;1.63;;;12.50;99.30;;;;;;5029365;28;20385;-69
2022/10/18 00:37:05;;;;;;;0.60;0.60;;;12.50;99.30;;;;;;5028547;28;20397;-69
2022/10/18 00:39:31;;;;;;;2.28;1.63;;;12.40;99.30;;;;;;5028371;28;20040;-69
2022/10/18 00:41:56;;;;;;;0.60;0.60;;;12.50;99.20;;;;;;5029291;28;20108;-69
2022/10/18 00:44:25;;;;;;;0.50;0.50;;;12.50;99.40;;;;;;5029669;28;20128;-69
2022/10/18 00:46:54;;;;;;;1.67;1.58;;;12.50;99.50;;;;;;5027426;28;20133;-69
2022/10/18 00:49:26;;;;;;;2.33;2.13;;;12.50;99.40;;;;;;5029068;28;20366;-70
2022/10/18 00:52:06;;;;;;;0.38;0.38;;;12.40;99.40;;;;;;5030991;28;20037;-70
2022/10/18 00:54:36;;;;;;;3.55;1.45;;;12.40;99.50;;;;;;5032037;28;20605;-70
2022/10/18 00:57:03;;;;;;;1.38;1.10;;;12.40;99.50;;;;;;5033989;28;20052;-71
2022/10/18 00:59:29;;;;;;;1.02;1.02;;;12.50;99.50;;;;;;5032985;28;20029;-67
2022/10/18 01:01:55;;;;;;;0.90;0.90;;;12.40;99.50;;;;;;5033811;28;20177;-69
2022/10/18 01:04:21;;;;;;;0.57;0.57;;;12.40;99.60;;;;;;5032916;28;20128;-69
2022/10/18 01:06:56;;;;;;;0.73;0.73;;;12.30;99.40;;;;;;5032037;28;20029;-69
2022/10/18 01:09:34;;;;;;;0.50;0.50;;;12.20;99.60;;;;;;5031819;28;20439;-69
2022/10/18 01:12:08;;;;;;;1.35;1.25;;;12.30;99.70;;;;;;5033578;28;20025;-70
2022/10/18 01:15:15;;;;;;;0.93;0.70;;;12.30;99.50;;;;;;5031940;28;20136;-70
2022/10/18 01:17:58;;;;;;;1.02;0.93;;;12.30;99.70;;;;;;5039706;28;20062;-69
2022/10/18 01:21:00;;;;;;;7.10;1.45;;;12.30;99.80;;;;;;5023523;28;20444;-70
2022/10/18 01:23:40;;;;;;;1.45;1.05;;;12.20;99.90;;;;;;5032350;28;20065;-70
2022/10/18 01:26:25;;;;;;;2.20;2.00;;;12.20;99.90;;;;;;5032716;28;20065;-70
2022/10/18 01:29:09;;;;;;;0.50;0.50;;;12.30;99.80;;;;;;5030610;28;20412;-70
2022/10/18 01:31:50;;;;;;;0.57;0.57;;;12.20;99.90;;;;;;5019837;28;20131;-69
2022/10/18 01:34:18;;;;;;;1.25;1.15;;;12.20;99.90;;;;;;5030879;28;20117;-69
2022/10/18 01:36:48;;;;;;;0.40;0.40;;;12.20;99.90;;;;;;5033133;28;20028;-70
2022/10/18 01:39:30;;;;;;;1.65;1.30;;;12.20;99.90;;;;;;5031330;28;20052;-69
2022/10/18 01:41:58;;;;;;;1.80;1.67;;;12.20;99.90;;;;;;5032120;28;20036;-70
2022/10/18 01:44:26;;;;;;;0.95;0.95;;;12.20;99.90;;;;;;5031360;28;20092;-70
2022/10/18 01:46:53;;;;;;;0.50;0.50;;;12.10;99.90;;;;;;5031299;28;20049;-70
2022/10/18 01:49:19;;;;;;;2.33;0.90;;;12.10;99.90;;;;;;5031215;28;20065;-70
2022/10/18 01:51:45;;;;;;;1.48;0.93;;;12.10;99.90;;;;;;5031228;28;20044;-70
2022/10/18 01:54:14;;;;;;;2.20;2.10;;;12.00;99.90;;;;;;5032066;28;20041;-70
2022/10/18 01:57:05;;;;;;;4.88;1.60;;;12.00;99.90;;;;;;5030420;28;20051;-70
2022/10/18 01:59:49;;;;;;;2.05;1.10;;;12.00;99.90;;;;;;5018392;28;20030;-69
2022/10/18 02:02:41;;;;;;;0.90;0.65;;;12.10;99.90;;;;;;5032322;28;20026;-70
2022/10/18 02:05:12;;;;;;;0.60;0.60;;;12.10;99.90;;;;;;5029549;28;20590;-70
2022/10/18 02:07:59;;;;;;;0.60;0.60;;;12.10;99.90;;;;;;5030489;28;20044;-70
2022/10/18 02:10:24;;;;;;;0.80;0.80;;;12.10;99.90;;;;;;5032070;28;20038;-68
2022/10/18 02:12:53;;;;;;;1.07;0.83;;;12.00;99.90;;;;;;5032155;28;20147;-69
2022/10/18 02:15:27;;;;;;;0.40;0.40;;;11.90;99.90;;;;;;5032748;28;20523;-70
2022/10/18 02:17:54;;;;;;;0.50;0.50;;;11.80;99.90;;;;;;5031111;28;20087;-69
2022/10/18 02:20:22;;;;;;;0.85;0.70;;;11.90;99.90;;;;;;5032849;28;20049;-70
2022/10/18 02:22:50;;;;;;;1.20;1.15;;;11.90;99.90;;;;;;5030603;28;20128;-70
2022/10/18 02:25:23;;;;;;;1.13;1.02;;;11.90;99.90;;;;;;5031644;28;20365;-69
2022/10/18 02:27:50;;;;;;;0.82;0.82;;;11.80;99.90;;;;;;5030307;28;20120;-70
2022/10/18 02:30:16;;;;;;;1.77;1.45;;;11.80;99.90;;;;;;5031547;28;20090;-70
2022/10/18 02:33:11;;;;;;;3.28;0.77;;;11.90;99.90;;;;;;5031994;28;20429;-70
2022/10/18 02:35:46;;;;;;;2.38;1.85;;;11.90;99.90;;;;;;5031232;28;20057;-70
2022/10/18 02:38:14;;;;;;;0.93;0.93;;;11.90;99.90;;;;;;5020253;28;20475;-69
2022/10/18 02:40:40;;;;;;;1.20;1.10;;;11.90;99.90;;;;;;5031545;28;20037;-69
2022/10/18 02:43:06;;;;;;;1.67;1.57;;;11.80;99.90;;;;;;5031273;28;20026;-69
2022/10/18 02:45:32;;;;;;;1.00;0.93;;;11.80;99.90;;;;;;5031123;28;20037;-71
2022/10/18 02:47:58;;;;;;;3.10;2.30;;;11.80;99.90;;;;;;5030584;28;20045;-70
2022/10/18 02:50:23;;;;;;;1.33;1.27;;;11.80;99.90;;;;;;5031319;28;20060;-71
2022/10/18 02:52:49;;;;;;;0.87;0.80;;;11.80;99.90;;;;;;5029011;28;20068;-70
2022/10/18 02:55:16;;;;;;;1.23;1.23;;;11.80;99.90;;;;;;5029341;28;20041;-69
2022/10/18 02:57:41;;;;;;;0.70;0.70;;;11.80;99.90;;;;;;5031593;28;20163;-69
2022/10/18 03:00:08;;;;;;;0.80;0.80;;;11.90;99.90;;;;;;5029548;28;20511;-69
2022/10/18 03:02:33;;;;;;;0.40;0.40;;;11.90;99.90;;;;;;5030065;28;20270;-69
2022/10/18 03:04:59;;;;;;;1.10;1.00;;;11.90;99.90;;;;;;5030095;28;20136;-70
2022/10/18 03:07:25;;;;;;;1.33;1.27;;;11.90;99.90;;;;;;5028698;28;20103;-70
2022/10/18 03:09:51;;;;;;;2.13;1.85;;;11.80;99.90;;;;;;5031055;28;20096;-70
2022/10/18 03:12:17;;;;;;;0.87;0.77;;;11.80;99.90;;;;;;5030310;28;20558;-70
2022/10/18 03:14:42;;;;;;;0.60;0.60;;;11.80;99.90;;;;;;5028051;28;20069;-69
2022/10/18 03:17:08;;;;;;;2.03;1.33;;;11.80;99.90;;;;;;5031240;28;20029;-68
2022/10/18 03:19:33;;;;;;;2.20;1.27;;;11.80;99.90;;;;;;5030587;28;20080;-70
2022/10/18 03:21:59;;;;;;;1.13;1.10;;;11.80;99.90;;;;;;5028187;28;20033;-70
2022/10/18 03:24:24;;;;;;;0.93;0.93;;;11.80;99.90;;;;;;5030723;28;20033;-69
2022/10/18 03:26:50;;;;;;;0.40;0.40;;;11.70;99.90;;;;;;5029421;28;20022;-70
2022/10/18 03:29:16;;;;;;;0.73;0.73;;;11.70;99.90;;;;;;5030189;28;20485;-70
2022/10/18 03:31:42;;;;;;;3.00;2.78;;;11.60;99.90;;;;;;5028106;28;20056;-70
2022/10/18 03:34:07;;;;;;;1.03;1.03;;;11.60;99.90;;;;;;5030312;28;20393;-70
2022/10/18 03:36:33;;;;;;;0.63;0.60;;;11.50;99.90;;;;;;5030080;28;20057;-70
2022/10/18 03:38:59;;;;;;;1.57;1.47;;;11.50;99.90;;;;;;5030042;28;20033;-70
2022/10/18 03:41:24;;;;;;;0.77;0.77;;;11.50;99.90;;;;;;5030249;28;20072;-70
2022/10/18 03:43:50;;;;;;;2.20;2.00;;;11.50;99.90;;;;;;5030099;28;20025;-69
2022/10/18 03:46:15;;;;;;;1.03;1.00;;;11.50;99.90;;;;;;5029357;28;20073;-69
2022/10/18 03:48:41;;;;;;;0.40;0.40;;;11.40;99.90;;;;;;5011891;28;20041;-70
2022/10/18 03:51:07;;;;;;;0.83;0.73;;;11.40;99.90;;;;;;5030303;28;20040;-69
2022/10/18 03:53:32;;;;;;;1.17;1.13;;;11.40;99.90;;;;;;5029585;28;20420;-71
2022/10/18 03:55:58;;;;;;;0.70;0.70;;;11.40;99.90;;;;;;5029318;28;20068;-70
2022/10/18 03:58:24;;;;;;;26.77;1.90;;;11.30;99.90;;;;;;5028860;28;20544;-70
2022/10/18 04:00:53;;;;;;;8.30;1.37;;;11.40;99.90;;;;;;5030059;28;20037;-70
2022/10/18 04:03:20;;;;;;;0.40;0.40;;;11.40;99.90;;;;;;5028640;28;20041;-69
2022/10/18 04:05:47;;;;;;;1.13;1.02;;;11.40;99.90;;;;;;5029305;28;20357;-70
2022/10/18 04:08:13;;;;;;;1.30;1.27;;;11.50;99.90;;;;;;5028705;28;20144;-69
2022/10/18 04:10:39;;;;;;;0.93;0.93;;;11.50;99.90;;;;;;5030153;28;20053;-69
2022/10/18 04:13:05;;;;;;;0.77;0.77;;;11.40;99.90;;;;;;5029663;28;20037;-69
2022/10/18 04:15:31;;;;;;;1.95;1.40;;;11.40;99.90;;;;;;5030772;28;20034;-69
2022/10/18 04:17:57;;;;;;;0.70;0.70;;;11.40;99.90;;;;;;5029614;28;20026;-70
2022/10/18 04:20:23;;;;;;;1.37;1.27;;;11.40;99.90;;;;;;5029959;28;20052;-69
2022/10/18 04:22:49;;;;;;;0.65;0.65;;;11.40;99.90;;;;;;5028853;28;20036;-69
2022/10/18 04:25:15;;;;;;;0.73;0.70;;;11.40;99.90;;;;;;5029623;28;20196;-70
2022/10/18 04:27:41;;;;;;;0.80;0.80;;;11.40;99.90;;;;;;5032905;28;20026;-69
2022/10/18 04:30:07;;;;;;;0.70;0.70;;;11.40;99.90;;;;;;5032756;28;20063;-69
2022/10/18 04:32:34;;;;;;;3.40;2.87;;;11.40;99.90;;;;;;5032105;28;20112;-71
2022/10/18 04:35:00;;;;;;;;;;;11.40;99.90;;;;;;5034389;28;20358;-70
2022/10/18 04:37:26;;;;;;;0.52;0.52;;;11.30;99.90;;;;;;5034270;28;19912;-70
2022/10/18 04:39:51;;;;;;;1.27;0.87;;;11.40;99.90;;;;;;5032417;28;20030;-70
2022/10/18 04:42:17;;;;;;;1.30;1.20;;;11.40;99.90;;;;;;5032725;28;20037;-70
2022/10/18 04:44:42;;;;;;;0.40;0.40;;;11.30;99.90;;;;;;5033611;28;20385;-70
2022/10/18 04:47:08;;;;;;;1.23;1.00;;;11.30;99.90;;;;;;5033084;28;20050;-69
2022/10/18 04:49:33;;;;;;;1.00;1.00;;;11.30;99.90;;;;;;5033410;28;20037;-69
2022/10/18 04:51:59;;;;;;;1.17;1.17;;;11.20;99.90;;;;;;5033298;28;20437;-70
2022/10/18 04:54:24;;;;;;;0.90;0.90;;;11.20;99.90;;;;;;5033526;28;20033;-69
2022/10/18 04:56:50;;;;;;;0.40;0.40;;;11.30;99.90;;;;;;5031444;28;20036;-71
2022/10/18 04:59:16;;;;;;;1.23;1.17;;;11.30;99.90;;;;;;5032117;28;20374;-69
2022/10/18 05:01:41;;;;;;;0.70;0.70;;;11.30;99.90;;;;;;5031342;28;20107;-70
2022/10/18 05:04:07;;;;;;;0.40;0.40;;;11.30;99.90;;;;;;5033532;28;20038;-70
2022/10/18 05:06:33;;;;;;;1.55;1.45;;;11.30;99.90;;;;;;5030051;28;20520;-70
2022/10/18 05:08:58;;;;;;;2.40;2.20;;;11.30;99.90;;;;;;5033174;28;20064;-70
2022/10/18 05:11:24;;;;;;;2.43;2.10;;;11.20;99.90;;;;;;5032430;28;20035;-68
2022/10/18 05:13:50;;;;;;;0.40;0.40;;;11.20;99.90;;;;;;5032280;28;20129;-70
2022/10/18 05:16:15;;;;;;;0.70;0.70;;;11.20;99.90;;;;;;5032995;28;20028;-70
2022/10/18 05:18:42;;;;;;;8.67;2.37;;;11.20;99.90;;;;;;5032072;28;20036;-69
2022/10/18 05:21:07;;;;;;;0.68;0.68;;;11.20;99.90;;;;;;5032921;28;20044;-70
2022/10/18 05:23:33;;;;;;;0.53;0.53;;;11.20;99.90;;;;;;5032805;28;20033;-70
2022/10/18 05:26:04;;;;;;;1.07;1.07;;;11.30;99.90;;;;;;5031007;28;20076;-69
2022/10/18 05:28:30;;;;;;;0.68;0.68;;;11.30;99.90;;;;;;5031681;28;20072;-69
2022/10/18 05:31:01;;;;;;;0.60;0.60;;;11.30;99.90;;;;;;5031251;28;20057;-70
2022/10/18 05:33:27;;;;;;;1.92;1.83;;;11.40;99.90;;;;;;5032306;28;20496;-69
2022/10/18 05:35:52;;;;;;;1.47;1.43;;;11.50;99.90;;;;;;5033439;28;20034;-69
2022/10/18 05:38:18;;;;;;;1.00;1.00;;;11.50;99.90;;;;;;5029745;28;20756;-70
2022/10/18 05:40:43;;;;;;;3.70;1.30;;;11.50;99.90;;;;;;5033185;28;20533;-70
2022/10/18 05:43:09;;;;;;;1.40;1.30;;;11.50;99.90;;;;;;5030393;28;20393;-71
2022/10/18 05:45:34;;;;;;;1.07;1.07;;;11.60;99.90;;;;;;5048154;28;20033;-70
2022/10/18 05:48:00;;;;;;;0.67;0.67;;;11.70;99.90;;;;;;5032239;28;20073;-71
2022/10/18 05:50:25;;;;;;;1.30;1.20;;;11.80;99.90;;;;;;5032463;28;20072;-71
2022/10/18 05:52:55;;;;;;;1.20;1.10;;;11.90;99.90;;;;;;5032970;28;20025;-70
2022/10/18 05:55:21;;;;;;;1.60;1.50;;;12.20;99.90;;;;;;5030707;28;20595;-69
2022/10/18 05:57:50;;;;;;;0.63;0.63;;;12.40;99.90;;;;;;5030610;28;20113;-69
2022/10/18 06:00:17;;;;;;;1.33;1.23;;;12.60;99.90;;;;;;5030486;28;20449;-71
2022/10/18 06:02:43;;;;;;;2.20;1.13;;;12.80;99.90;;;;;;5032525;28;20029;-70
2022/10/18 06:05:09;;;;;;;1.13;1.13;;;13.10;99.90;;;;;;5029068;28;20044;-71
2022/10/18 06:07:34;;;;;;;1.63;1.53;;;13.50;99.80;;;;;;5032098;28;20040;-69
2022/10/18 06:10:00;;;;;;;0.80;0.80;;;13.80;98.80;;;;;;5030780;28;20037;-71
2022/10/18 06:12:25;;;;;;;1.90;1.47;;;13.90;98.80;;;;;;5030102;28;20025;-72
2022/10/18 06:14:51;;;;;;;1.23;1.13;;;14.00;98.40;;;;;;5031987;28;20057;-69
2022/10/18 06:17:17;;;;;;;0.80;0.80;;;14.00;98.50;;;;;;5031241;28;20035;-69
2022/10/18 06:19:43;;;;;;;0.53;0.53;;;14.10;98.50;;;;;;5031619;28;20041;-70
2022/10/18 06:22:09;;;;;;;3.55;1.02;;;14.30;98.40;;;;;;5031422;28;20033;-70
2022/10/18 06:24:35;;;;;;;3.78;2.45;;;14.40;98.00;;;;;;5029427;28;20112;-70
2022/10/18 06:27:06;;;;;;;3.93;1.70;;;14.40;97.80;;;;;;5032097;28;20029;-70
2022/10/18 06:29:32;;;;;;;1.10;0.75;;;14.40;97.80;;;;;;5030528;28;20065;-70
2022/10/18 06:31:58;;;;;;;1.10;1.07;;;14.40;97.80;;;;;;5029271;28;20895;-70
2022/10/18 06:34:23;;;;;;;1.00;0.97;;;14.30;98.10;;;;;;5031046;28;20385;-70
2022/10/18 06:36:49;;;;;;;1.23;1.17;;;14.40;97.60;;;;;;5030934;28;20052;-70
2022/10/18 06:39:14;;;;;;;1.40;1.30;;;14.40;97.70;;;;;;5030622;28;20104;-69
2022/10/18 06:41:40;;;;;;;0.40;0.40;;;14.40;97.70;;;;;;5029920;28;20017;-69
2022/10/18 06:44:12;;;;;;;0.80;0.80;;;14.30;97.80;;;;;;5030679;28;20045;-69
2022/10/18 06:46:39;;;;;;;2.53;1.70;;;14.40;98.10;;;;;;5029817;28;20116;-69
2022/10/18 06:49:05;;;;;;;4.50;1.88;;;14.40;98.10;;;;;;5030515;28;20377;-70
2022/10/18 06:51:30;;;;;;;1.30;1.03;;;14.50;97.90;;;;;;5030920;28;20022;-70
2022/10/18 06:53:56;;;;;;;1.40;1.13;;;14.50;98.10;;;;;;5012607;28;20033;-69
2022/10/18 06:56:22;;;;;;;1.20;1.20;;;14.60;97.80;;;;;;5029668;28;20025;-69
2022/10/18 06:58:47;;;;;;;2.33;1.80;;;14.70;97.70;;;;;;5030610;28;20017;-72
2022/10/18 07:01:15;;;;;;;0.83;0.83;;;14.80;97.50;;;;;;5029787;28;20042;-69
2022/10/18 07:03:41;;;;;;;0.65;0.65;;;14.90;97.50;;;;;;5022576;28;20517;-69
2022/10/18 07:06:10;;;;;;;1.25;1.15;;;15.00;97.50;;;;;;5020442;28;20079;-69
2022/10/18 07:08:37;;;;;;;2.95;1.20;;;15.10;97.50;;;;;;5031068;28;20119;-69
2022/10/18 07:11:04;;;;;;;2.40;2.05;;;15.20;97.00;;;;;;5030012;28;20033;-69
2022/10/18 07:13:30;;;;;;;2.55;1.08;;;15.30;96.90;;;;;;5029640;28;20052;-69
2022/10/18 07:16:15;;;;;;;;;;;15.50;96.80;;;;;;5029366;28;20461;-71
2022/10/18 07:18:44;;;;;;;4.80;1.30;;;15.60;96.90;;;;;;5029692;28;19920;-70
2022/10/18 07:21:12;;;;;;;1.75;1.52;;;15.70;96.40;;;;;;5028041;28;20101;-69
2022/10/18 07:23:42;;;;;;;1.17;0.90;;;15.80;96.40;;;;;;5030967;28;20141;-69
2022/10/18 07:26:34;;;;;;;0.60;0.60;;;16.00;96.10;;;;;;5029652;28;20029;-70
2022/10/18 07:29:09;;;;;;;0.90;0.90;;;16.20;95.80;;;;;;5029765;28;20049;-70
2022/10/18 07:31:37;;;;;;;1.10;1.00;;;16.20;95.30;;;;;;5028878;28;20323;-69
2022/10/18 07:34:04;;;;;;;4.90;2.53;;;16.30;95.00;;;;;;5029614;28;20032;-69
2022/10/18 07:36:30;;;;;;;0.73;0.73;;;16.30;95.00;;;;;;5028986;28;20049;-70
2022/10/18 07:38:55;;;;;;;0.50;0.50;;;16.40;94.80;;;;;;5025782;28;20029;-70
2022/10/18 07:41:21;;;;;;;1.50;1.13;;;16.40;94.60;;;;;;5027149;28;20034;-70
2022/10/18 07:43:49;;;;;;;1.43;1.33;;;16.40;94.80;;;;;;5029294;28;20120;-71
2022/10/18 07:46:16;;;;;;;1.20;1.15;;;16.50;94.70;;;;;;5027932;28;20455;-70
2022/10/18 07:48:42;;;;;;;2.25;1.58;;;16.70;94.70;;;;;;5030525;28;20033;-70
2022/10/18 07:51:08;;;;;;;1.10;0.57;;;16.90;94.60;;;;;;5029756;28;20034;-70
2022/10/18 07:53:34;;;;;;;1.35;1.25;;;17.10;94.40;;;;;;5027815;28;20128;-69
2022/10/18 07:56:06;;;;;;;1.27;1.05;;;17.20;94.30;;;;;;5029500;28;20113;-71
2022/10/18 07:58:32;;;;;;;0.88;0.82;;;17.30;94.20;;;;;;5029510;28;20025;-69
2022/10/18 08:01:03;;;;;;;0.50;0.50;;;17.50;93.90;;;;;;5025539;28;20060;-70
2022/10/18 08:03:28;;;;;;;3.50;2.08;;;17.70;93.70;;;;;;5029823;28;20449;-69
2022/10/18 08:05:54;;;;;;;0.67;0.60;;;17.90;93.60;;;;;;5027441;28;20120;-70
2022/10/18 08:08:22;;;;;;;1.40;1.30;;;18.10;93.40;;;;;;5029541;28;20037;-70
2022/10/18 08:10:48;;;;;;;1.55;1.45;;;18.30;92.50;;;;;;5029925;28;20290;-69
2022/10/18 08:13:14;;;;;;;0.70;0.70;;;18.40;92.30;;;;;;5029819;28;20025;-70
2022/10/18 08:15:40;;;;;;;0.63;0.63;;;18.60;92.50;;;;;;5029819;28;20063;-70
2022/10/18 08:18:05;;;;;;;1.77;1.33;;;18.70;91.80;;;;;;5028850;28;20567;-69
2022/10/18 08:20:32;;;;;;;0.77;0.77;;;19.00;91.50;;;;;;5029817;28;20075;-71
2022/10/18 08:22:58;;;;;;;2.20;1.48;;;19.20;91.40;;;;;;5029620;28;20034;-70
2022/10/18 08:25:24;;;;;;;0.73;0.73;;;19.50;90.90;;;;;;5029539;28;20036;-68
2022/10/18 08:27:49;;;;;;;1.60;1.50;;;19.80;90.50;;;;;;5030120;28;20034;-68
2022/10/18 08:30:15;;;;;;;1.13;1.03;;;20.00;90.00;;;;;;5027539;28;20029;-69
2022/10/18 08:32:41;;;;;;;1.80;1.37;;;20.00;89.70;;;;;;5027388;28;20231;-69
2022/10/18 08:35:07;;;;;;;0.53;0.53;;;20.20;88.90;;;;;;5028749;28;20018;-69
2022/10/18 08:37:33;;;;;;;1.13;1.13;;;20.40;88.60;;;;;;5029992;28;20112;-68
2022/10/18 08:39:58;;;;;;;2.60;1.05;;;20.70;88.00;;;;;;5028708;28;20033;-69
2022/10/18 08:42:56;;;;;;;0.97;0.97;;;21.00;87.20;;;;;;5029768;28;20045;-69
2022/10/18 08:45:23;;;;;;;0.80;0.80;;;21.30;86.20;;;;;;5027756;28;20117;-70
2022/10/18 08:47:52;;;;;;;0.30;0.30;;;21.40;85.70;;;;;;5030205;28;20050;-69
2022/10/18 08:50:22;;;;;;;0.93;0.80;;;21.60;85.80;;;;;;5009435;28;20501;-71
2022/10/18 08:52:50;;;;;;;1.30;1.05;;;21.70;84.20;;;;;;5024807;28;20038;-68
2022/10/18 08:55:36;;;;;;;0.40;0.40;;;21.70;84.40;;;;;;5028788;28;20469;-70
2022/10/18 08:58:11;;;;;;;1.40;1.30;;;21.70;84.60;;;;;;5028508;28;20034;-70
2022/10/18 09:00:42;;;;;;;0.93;0.80;;;21.80;84.30;;;;;;5029415;28;20113;-71
2022/10/18 09:03:26;;;;;;;1.58;1.48;;;21.90;83.60;;;;;;5029212;28;20142;-70
2022/10/18 09:05:57;;;;;;;0.50;0.50;;;22.00;84.30;;;;;;5029996;28;20444;-70
2022/10/18 09:08:48;;;;;;;0.82;0.82;;;22.10;83.10;;;;;;5028929;28;20134;-70
2022/10/18 09:11:31;;;;;;;0.95;0.95;;;22.00;82.90;;;;;;5027759;28;20037;-70
2022/10/18 09:14:24;;;;;;;1.67;0.85;;;22.00;83.20;;;;;;5032171;28;20075;-70
2022/10/18 09:16:53;;;;;;;2.35;1.55;;;22.00;83.20;;;;;;5016736;28;20075;-69
2022/10/18 09:19:31;;;;;;;2.03;1.75;;;22.00;82.80;;;;;;5032516;28;20350;-70
2022/10/18 09:22:07;;;;;;;1.13;0.88;;;21.80;82.70;;;;;;5032560;28;20060;-70
2022/10/18 09:24:55;;;;;;;0.88;0.88;;;21.60;82.50;;;;;;5032436;28;20030;-69
2022/10/18 09:27:34;;;;;;;1.90;1.25;;;21.30;83.70;;;;;;5035224;28;20041;-69
2022/10/18 09:30:16;;;;;;;0.80;0.80;;;21.20;85.60;;;;;;5033373;28;20131;-69
2022/10/18 09:33:03;;;;;;;1.10;0.98;;;21.20;84.90;;;;;;5031598;28;20034;-70
2022/10/18 09:35:54;;;;;;;1.10;1.00;;;21.10;85.40;;;;;;5031391;28;20033;-70
2022/10/18 09:38:23;;;;;;;0.57;0.50;;;21.20;85.10;;;;;;5031857;28;20506;-70
2022/10/18 09:41:06;;;;;;;1.58;1.48;;;21.40;85.40;;;;;;5032015;28;20483;-69
2022/10/18 09:43:45;;;;;;;0.80;0.80;;;21.50;85.10;;;;;;5032203;28;20128;-70
2022/10/18 09:46:12;;;;;;;2.38;1.92;;;21.40;85.10;;;;;;5032336;28;20496;-70
2022/10/18 09:49:01;;;;;;;0.73;0.73;;;21.40;85.10;;;;;;5032336;28;20037;-69
2022/10/18 09:51:33;;;;;;;0.60;0.60;;;21.40;85.60;;;;;;5031124;28;20040;-70
2022/10/18 09:54:27;;;;;;;0.40;0.40;;;21.60;85.00;;;;;;5032717;28;20425;-70
2022/10/18 09:57:08;;;;;;;1.33;0.57;;;21.70;85.10;;;;;;5030777;28;20377;-69
2022/10/18 09:59:42;;;;;;;1.00;0.90;;;21.80;84.60;;;;;;5031417;28;20029;-69
2022/10/18 10:02:22;;;;;;;0.50;0.40;;;21.70;85.10;;;;;;5030501;28;20175;-69
2022/10/18 10:04:53;;;;;;;3.20;1.58;;;21.80;85.10;;;;;;5031677;28;20164;-69
2022/10/18 10:07:27;;;;;;;0.50;0.50;;;22.00;84.70;;;;;;5032228;28;20036;-70
2022/10/18 10:10:02;;;;;;;0.50;0.50;;;22.20;84.60;;;;;;5030427;28;20045;-69
2022/10/18 10:12:33;;;;;;;1.00;1.00;;;22.50;84.30;;;;;;5019218;28;20098;-69
2022/10/18 10:15:15;;;;;;;2.42;0.93;;;22.70;83.40;;;;;;5030438;28;20530;-69
2022/10/18 10:17:42;;;;;;;0.50;0.50;;;22.80;82.90;;;;;;5029893;28;20538;-70
2022/10/18 10:20:19;;;;;;;1.27;1.23;;;23.10;82.30;;;;;;5029774;28;20515;-69
2022/10/18 10:22:46;;;;;;;0.75;0.75;;;23.20;81.50;;;;;;5030184;28;20038;-70
2022/10/18 10:25:40;;;;;;;0.93;0.73;;;23.10;81.60;;;;;;5030433;28;20064;-69
2022/10/18 10:28:19;;;;;;;0.55;0.55;;;23.10;81.00;;;;;;5015747;28;20041;-70
2022/10/18 10:30:44;;;;;;;1.20;1.02;;;23.00;80.80;;;;;;5030368;28;20037;-69
2022/10/18 10:33:36;;;;;;;0.93;0.90;;;23.00;81.70;;;;;;5027436;28;20440;-69
2022/10/18 10:36:05;;;;;;;1.08;1.00;;;23.80;80.70;;;;;;5030854;28;20026;-71
2022/10/18 10:38:31;;;;;;;0.43;0.43;;;22.90;80.40;;;;;;5030947;28;20041;-69
2022/10/18 10:40:57;;;;;;;0.50;0.50;;;22.90;81.30;;;;;;5029919;28;20021;-69
2022/10/18 10:43:35;;;;;;;1.45;1.35;;;22.90;80.60;;;;;;5031727;28;20101;-70
2022/10/18 10:46:14;;;;;;;0.55;0.55;;;23.00;80.40;;;;;;5031360;28;20037;-70
2022/10/18 10:48:47;;;;;;;0.80;0.77;;;23.00;80.20;;;;;;5030233;28;20056;-69
2022/10/18 10:51:14;;;;;;;1.13;0.75;;;23.00;80.70;;;;;;5030111;28;20136;-70
2022/10/18 10:53:55;;;;;;;1.27;0.88;;;23.20;80.80;;;;;;5011882;28;20099;-70
2022/10/18 10:56:27;;;;;;;0.82;0.82;;;23.60;80.30;;;;;;5026939;28;20488;-71
2022/10/18 10:58:55;;;;;;;1.10;0.93;;;23.90;79.20;;;;;;5030354;28;20029;-69
2022/10/18 11:01:28;;;;;;;4.07;1.20;;;24.00;78.80;;;;;;5029539;28;20029;-69
2022/10/18 11:04:00;;;;;;;0.45;0.45;;;23.80;77.50;;;;;;5031394;28;20500;-70
2022/10/18 11:06:52;;;;;;;1.35;0.98;;;23.70;78.80;;;;;;5029753;28;20064;-71
2022/10/18 11:09:42;;;;;;;3.85;1.83;;;23.70;78.10;;;;;;5013061;28;20167;-70
2022/10/18 11:12:33;;;;;;;0.60;0.60;;;23.80;78.30;;;;;;5030432;28;20489;-70
2022/10/18 11:15:17;;;;;;;0.65;0.65;;;23.70;77.20;;;;;;5030549;28;20060;-70
2022/10/18 11:18:05;;;;;;;2.45;1.92;;;23.40;77.80;;;;;;5029870;28;20025;-70
2022/10/18 11:20:34;;;;;;;;;;;23.40;78.10;;;;;;5031953;28;20037;-70
2022/10/18 11:23:14;;;;;;;1.38;1.05;;;23.30;78.10;;;;;;5029479;28;20145;-71
2022/10/18 11:26:01;;;;;;;2.47;1.50;;;23.10;78.20;;;;;;5029319;28;20038;-70
2022/10/18 11:28:51;;;;;;;0.93;0.80;;;23.00;78.60;;;;;;5028950;28;20039;-69
2022/10/18 11:31:21;;;;;;;0.98;0.90;;;22.90;79.10;;;;;;5030352;28;20458;-70
2022/10/18 11:34:25;;;;;;;2.15;1.00;;;22.90;79.20;;;;;;5028638;28;20071;-70
2022/10/18 11:37:26;;;;;;;1.10;1.00;;;22.90;79.30;;;;;;5028875;28;20041;-69
2022/10/18 11:39:54;;;;;;;0.63;0.63;;;22.80;79.10;;;;;;5030166;28;20051;-69
2022/10/18 11:42:35;;;;;;;0.82;0.82;;;22.50;79.60;;;;;;5030057;28;20044;-69
2022/10/18 11:45:30;;;;;;;1.02;0.90;;;22.30;79.80;;;;;;5030821;28;20021;-69
2022/10/18 11:48:29;;;;;;;1.17;1.15;;;22.00;80.80;;;;;;5027976;28;20124;-64
2022/10/18 11:51:07;;;;;;;1.58;1.48;;;21.80;81.20;;;;;;5030192;28;20029;-70
2022/10/18 11:54:13;;;;;;;0.50;0.50;;;21.80;81.30;;;;;;5027648;28;20168;-71
2022/10/18 11:56:46;;;;;;;2.13;0.95;;;21.80;81.00;;;;;;5029388;28;20083;-71
2022/10/18 11:59:52;;;;;;;0.65;0.65;;;21.60;81.10;;;;;;5027992;28;20087;-71
2022/10/18 12:02:54;;;;;;;0.65;0.65;;;21.40;81.60;;;;;;5024049;28;20033;-70
2022/10/18 12:05:22;;;;;;;0.75;0.75;;;21.20;82.30;;;;;;5001161;28;20128;-72
2022/10/18 12:08:03;;;;;;;0.50;0.50;;;21.20;82.50;;;;;;5027266;28;20113;-71
2022/10/18 12:10:32;;;;;;;1.92;0.68;;;21.10;83.10;;;;;;5026920;28;20551;-71
2022/10/18 12:13:05;;;;;;;1.40;1.13;;;21.10;83.40;;;;;;5025720;28;21474;-71
2022/10/18 12:15:36;;;;;;;0.40;0.40;;;21.00;82.80;;;;;;5029760;28;20044;-71
2022/10/18 12:18:12;;;;;;;1.27;1.17;;;21.00;83.50;;;;;;5029462;28;20033;-71
2022/10/18 12:20:40;;;;;;;0.60;0.60;;;21.00;83.50;;;;;;5030161;28;20022;-72
2022/10/18 12:23:16;;;;;;;1.00;0.93;;;20.90;83.70;;;;;;5029832;28;20698;-71
2022/10/18 12:25:48;;;;;;;0.50;0.50;;;21.00;83.50;;;;;;5024336;28;20061;-72
2022/10/18 12:28:26;;;;;;;0.55;0.55;;;21.00;83.00;;;;;;5028958;28;20029;-72
2022/10/18 12:31:04;;;;;;;1.75;0.70;;;21.00;82.80;;;;;;5029619;28;20391;-71
2022/10/18 12:33:36;;;;;;;0.30;0.30;;;21.00;83.00;;;;;;5027639;28;20030;-71
2022/10/18 12:36:37;;;;;;;0.95;0.95;;;20.90;83.70;;;;;;5028023;28;20030;-72
2022/10/18 12:39:09;;;;;;;0.77;0.77;;;20.80;84.20;;;;;;5029426;28;20072;-72
2022/10/18 12:41:35;;;;;;;1.60;1.20;;;20.80;83.90;;;;;;5026554;28;20031;-72
2022/10/18 12:44:19;;;;;;;0.47;0.47;;;20.70;83.80;;;;;;5030032;28;20042;-71
2022/10/18 12:46:54;;;;;;;0.68;0.50;;;20.70;84.10;;;;;;5027938;28;20091;-72
2022/10/18 12:49:34;;;;;;;0.40;0.40;;;20.60;84.20;;;;;;5024613;28;20121;-71
2022/10/18 12:52:06;;;;;;;0.60;0.60;;;20.70;83.80;;;;;;5018649;28;20037;-72
2022/10/18 12:54:33;;;;;;;1.60;1.50;;;20.70;83.80;;;;;;5032840;28;20497;-71
2022/10/18 12:57:00;;;;;;;0.88;0.88;;;20.70;84.00;;;;;;5031329;28;20106;-72
2022/10/18 12:59:25;;;;;;;0.65;0.57;;;20.80;83.90;;;;;;5033340;28;20025;-72
2022/10/18 13:01:54;;;;;;;0.80;0.80;;;20.70;83.80;;;;;;5031478;28;20031;-71
2022/10/18 13:04:39;;;;;;;0.73;0.50;;;20.80;83.90;;;;;;5032076;28;20037;-70
2022/10/18 13:07:11;;;;;;;0.88;0.88;;;20.90;83.50;;;;;;5031890;28;20481;-72
2022/10/18 13:09:45;;;;;;;1.10;1.00;;;20.90;83.50;;;;;;5033091;28;20033;-73